Time;durP1;ratioP1;P1;durP2;ratioP2;P2;SDS_P1;SDS_P2;PMS_P1;PMS_P2;Temp;Humidity;BMP_temperature;BMP_pressure;BME280_temperature;BME280_humidity;BME280_pressure;Samples;Min_cycle;Max_cycle;Signal;HPM_P1;HPM_P2
2023/10/31 00:01:49;;;;;;;;;;;;;;;;;;5070998;28;19957;-69
2023/10/31 00:04:14;;;;;;;;;;;;;;;;;;5068526;28;19923;-68
2023/10/31 00:06:40;;;;;;;;;;;;;;;;;;5067460;28;19960;-68
2023/10/31 00:09:06;;;;;;;;;;;;;;;;;;5071252;28;19944;-69
2023/10/31 00:11:32;;;;;;;;;;;;;;;;;;5068363;28;19912;-68
2023/10/31 00:13:58;;;;;;;;;;;;;;;;;;5067332;28;19959;-65
2023/10/31 00:16:24;;;;;;;;;;;;;;;;;;5075026;28;19912;-64
2023/10/31 00:18:50;;;;;;;;;;;;;;;;;;5073355;28;19918;-65
2023/10/31 00:21:16;;;;;;;;;;;;;;;;;;5074681;28;19917;-64
2023/10/31 00:23:42;;;;;;;;;;;;;;;;;;5075310;28;19938;-64
2023/10/31 00:26:09;;;;;;;;;;;;;;;;;;5075158;28;19952;-64
2023/10/31 00:28:35;;;;;;;;;;;;;;;;;;5079416;28;20322;-64
2023/10/31 00:31:03;;;;;;;;;;;;;;;;;;5071377;28;19956;-64
2023/10/31 00:33:29;;;;;;;;;;;;;;;;;;5075152;28;20254;-65
2023/10/31 00:35:55;;;;;;;;;;;;;;;;;;5075316;28;20038;-65
2023/10/31 00:38:21;;;;;;;;;;;;;;;;;;5075769;28;19963;-65
2023/10/31 00:40:47;;;;;;;;;;;;;;;;;;5074590;28;19912;-65
2023/10/31 00:43:13;;;;;;;;;;;;;;;;;;5067717;28;19956;-65
2023/10/31 00:45:39;;;;;;;;;;;;;;;;;;5065937;28;19921;-65
2023/10/31 00:48:05;;;;;;;;;;;;;;;;;;5069644;28;19931;-65
2023/10/31 00:50:30;;;;;;;;;;;;;;;;;;5052255;28;19952;-65
2023/10/31 00:52:56;;;;;;;;;;;;;;;;;;5068566;28;19916;-65
2023/10/31 00:55:22;;;;;;;;;;;;;;;;;;5072335;28;19912;-65
2023/10/31 00:57:48;;;;;;;;;;;;;;;;;;5074887;28;20002;-65
2023/10/31 01:00:14;;;;;;;;;;;;;;;;;;5072082;28;19956;-64
2023/10/31 01:02:40;;;;;;;;;;;;;;;;;;5071372;28;19934;-64
2023/10/31 01:05:06;;;;;;;;;;;;;;;;;;5072921;28;19912;-64
2023/10/31 01:07:32;;;;;;;;;;;;;;;;;;5074662;28;19924;-65
2023/10/31 01:09:58;;;;;;;;;;;;;;;;;;5074085;28;20330;-64
2023/10/31 01:12:24;;;;;;;;;;;;;;;;;;5073517;28;20437;-65
2023/10/31 01:14:50;;;;;;;;;;;;;;;;;;5074297;28;19946;-65
2023/10/31 01:17:16;;;;;;;;;;;;;;;;;;5069289;28;19955;-65
2023/10/31 01:19:42;;;;;;;;;;;;;;;;;;5071216;28;19956;-65
2023/10/31 01:22:08;;;;;;;;;;;;;;;;;;5073756;28;19919;-64
2023/10/31 01:24:34;;;;;;;;;;;;;;;;;;5068196;28;19920;-69
2023/10/31 01:27:00;;;;;;;;;;;;;;;;;;5072943;28;19967;-69
2023/10/31 01:29:25;;;;;;;;;;;;;;;;;;5073589;28;19986;-69
2023/10/31 01:31:51;;;;;;;;;;;;;;;;;;5071149;28;20388;-69
2023/10/31 01:34:17;;;;;;;;;;;;;;;;;;5072351;28;20288;-68
2023/10/31 01:36:43;;;;;;;;;;;;;;;;;;5073676;28;19950;-68
2023/10/31 01:39:09;;;;;;;;;;;;;;;;;;5070001;28;19916;-67
2023/10/31 01:41:36;;;;;;;;;;;;;;;;;;5072201;28;19917;-68
2023/10/31 01:44:02;;;;;;;;;;;;;;;;;;5073331;28;19919;-68
2023/10/31 01:46:28;;;;;;;;;;;;;;;;;;5069824;28;19916;-68
2023/10/31 01:48:54;;;;;;;;;;;;;;;;;;5068524;28;20463;-69
2023/10/31 01:51:19;;;;;;;;;;;;;;;;;;5064585;28;19913;-68
2023/10/31 01:53:45;;;;;;;;;;;;;;;;;;5062160;28;19959;-67
2023/10/31 01:56:11;;;;;;;;;;;;;;;;;;5072273;28;19916;-68
2023/10/31 01:58:37;;;;;;;;;;;;;;;;;;5068247;28;20624;-68
2023/10/31 02:01:03;;;;;;;;;;;;;;;;;;5064648;28;19913;-69
2023/10/31 02:03:29;;;;;;;;;;;;;;;;;;5070962;28;20015;-69
2023/10/31 02:05:55;;;;;;;;;;;;;;;;;;5071182;28;19951;-68
2023/10/31 02:08:21;;;;;;;;;;;;;;;;;;5072034;28;19917;-68
2023/10/31 02:10:47;;;;;;;;;;;;;;;;;;5071423;28;19917;-68
2023/10/31 02:13:13;;;;;;;;;;;;;;;;;;5070255;28;19951;-68
2023/10/31 02:15:38;;;;;;;;;;;;;;;;;;5073565;28;19922;-69
2023/10/31 02:18:04;;;;;;;;;;;;;;;;;;5073506;28;20354;-69
2023/10/31 02:20:30;;;;;;;;;;;;;;;;;;5071911;28;20261;-68
2023/10/31 02:22:56;;;;;;;;;;;;;;;;;;5073054;28;19955;-69
2023/10/31 02:25:22;;;;;;;;;;;;;;;;;;5067625;28;19969;-68
2023/10/31 02:27:48;;;;;;;;;;;;;;;;;;5069371;28;19925;-68
2023/10/31 02:30:14;;;;;;;;;;;;;;;;;;5072819;28;19966;-68
2023/10/31 02:32:40;;;;;;;;;;;;;;;;;;5071167;28;19931;-65
2023/10/31 02:35:06;;;;;;;;;;;;;;;;;;5068171;28;19944;-65
2023/10/31 02:37:32;;;;;;;;;;;;;;;;;;5071551;28;20363;-65
2023/10/31 02:39:59;;;;;;;;;;;;;;;;;;5069024;28;19957;-65
2023/10/31 02:42:25;;;;;;;;;;;;;;;;;;5070193;28;19952;-65
2023/10/31 02:44:51;;;;;;;;;;;;;;;;;;5068791;28;20005;-65
2023/10/31 02:47:17;;;;;;;;;;;;;;;;;;5066468;28;20360;-65
2023/10/31 02:49:43;;;;;;;;;;;;;;;;;;5068145;28;20003;-65
2023/10/31 02:52:09;;;;;;;;;;;;;;;;;;5067985;28;20004;-65
2023/10/31 02:54:35;;;;;;;;;;;;;;;;;;5063780;28;20022;-65
2023/10/31 02:57:00;;;;;;;;;;;;;;;;;;5067627;28;19920;-65
2023/10/31 02:59:26;;;;;;;;;;;;;;;;;;5052984;28;19970;-65
2023/10/31 03:01:52;;;;;;;;;;;;;;;;;;5069592;28;19912;-65
2023/10/31 03:04:18;;;;;;;;;;;;;;;;;;5068051;28;19913;-65
2023/10/31 03:06:44;;;;;;;;;;;;;;;;;;5068463;28;19970;-65
2023/10/31 03:09:10;;;;;;;;;;;;;;;;;;5066913;28;19913;-65
2023/10/31 03:11:36;;;;;;;;;;;;;;;;;;5063296;28;20356;-65
2023/10/31 03:14:02;;;;;;;;;;;;;;;;;;5069684;28;19912;-65
2023/10/31 03:16:28;;;;;;;;;;;;;;;;;;5067734;28;20013;-65
2023/10/31 03:18:53;;;;;;;;;;;;;;;;;;5048428;28;19963;-65
2023/10/31 03:21:19;;;;;;;;;;;;;;;;;;5065849;28;19916;-65
2023/10/31 03:23:45;;;;;;;;;;;;;;;;;;5071248;28;20007;-65
2023/10/31 03:26:11;;;;;;;;;;;;;;;;;;5064460;28;19924;-65
2023/10/31 03:28:37;;;;;;;;;;;;;;;;;;5069051;28;20001;-65
2023/10/31 03:31:03;;;;;;;;;;;;;;;;;;5070322;28;19912;-65
2023/10/31 03:33:29;;;;;;;;;;;;;;;;;;5069863;28;19912;-65
2023/10/31 03:35:55;;;;;;;;;;;;;;;;;;5068665;28;19954;-65
2023/10/31 03:38:21;;;;;;;;;;;;;;;;;;5078556;28;19912;-65
2023/10/31 03:40:47;;;;;;;;;;;;;;;;;;5069241;28;19958;-65
2023/10/31 03:43:13;;;;;;;;;;;;;;;;;;5067291;28;20364;-65
2023/10/31 03:45:38;;;;;;;;;;;;;;;;;;5067979;28;19981;-65
2023/10/31 03:48:04;;;;;;;;;;;;;;;;;;5064127;28;19962;-63
2023/10/31 03:50:30;;;;;;;;;;;;;;;;;;5071585;28;19916;-65
2023/10/31 03:52:56;;;;;;;;;;;;;;;;;;5074350;28;20292;-64
2023/10/31 03:55:22;;;;;;;;;;;;;;;;;;5072041;28;19919;-64
2023/10/31 03:57:48;;;;;;;;;;;;;;;;;;5073796;28;19982;-64
2023/10/31 04:00:14;;;;;;;;;;;;;;;;;;5075050;28;20005;-64
2023/10/31 04:02:41;;;;;;;;;;;;;;;;;;5065597;28;20380;-64
2023/10/31 04:05:07;;;;;;;;;;;;;;;;;;5079978;28;19951;-64
2023/10/31 04:07:32;;;;;;;;;;;;;;;;;;5075068;28;19972;-64
2023/10/31 04:09:58;;;;;;;;;;;;;;;;;;5075536;28;19995;-64
2023/10/31 04:12:24;;;;;;;;;;;;;;;;;;5073632;28;19919;-63
2023/10/31 04:14:50;;;;;;;;;;;;;;;;;;5063284;28;19944;-64
2023/10/31 04:17:16;;;;;;;;;;;;;;;;;;5072530;28;19917;-64
2023/10/31 04:19:42;;;;;;;;;;;;;;;;;;5075308;28;19948;-64
2023/10/31 04:22:08;;;;;;;;;;;;;;;;;;5064788;28;19954;-64
2023/10/31 04:24:34;;;;;;;;;;;;;;;;;;5077263;28;19912;-65
2023/10/31 04:27:00;;;;;;;;;;;;;;;;;;5075325;28;20437;-66
2023/10/31 04:29:26;;;;;;;;;;;;;;;;;;5056537;28;19912;-64
2023/10/31 04:31:51;;;;;;;;;;;;;;;;;;5077829;28;20363;-64
2023/10/31 04:34:17;;;;;;;;;;;;;;;;;;5075096;28;19964;-64
2023/10/31 04:36:43;;;;;;;;;;;;;;;;;;5078880;28;19912;-64
2023/10/31 04:39:09;;;;;;;;;;;;;;;;;;5074321;28;19923;-64
2023/10/31 04:41:35;;;;;;;;;;;;;;;;;;5074603;28;19913;-64
2023/10/31 04:44:01;;;;;;;;;;;;;;;;;;5081960;28;19992;-64
2023/10/31 04:46:27;;;;;;;;;;;;;;;;;;5077688;28;19947;-64
2023/10/31 04:48:53;;;;;;;;;;;;;;;;;;5071958;28;20380;-64
2023/10/31 04:51:19;;;;;;;;;;;;;;;;;;5075474;28;19963;-64
2023/10/31 04:53:45;;;;;;;;;;;;;;;;;;5052032;28;20388;-67
2023/10/31 04:56:11;;;;;;;;;;;;;;;;;;5072243;28;19927;-68
2023/10/31 04:58:37;;;;;;;;;;;;;;;;;;5070294;28;20312;-67
2023/10/31 05:01:02;;;;;;;;;;;;;;;;;;5067699;28;19912;-69
2023/10/31 05:03:28;;;;;;;;;;;;;;;;;;5070399;28;19944;-67
2023/10/31 05:05:54;;;;;;;;;;;;;;;;;;5078872;28;20384;-66
2023/10/31 05:08:20;;;;;;;;;;;;;;;;;;5076333;28;19934;-68
2023/10/31 05:10:47;;;;;;;;;;;;;;;;;;5079362;28;20263;-67
2023/10/31 05:13:13;;;;;;;;;;;;;;;;;;5076879;28;19962;-68
2023/10/31 05:15:39;;;;;;;;;;;;;;;;;;5075604;28;19944;-67
2023/10/31 05:18:05;;;;;;;;;;;;;;;;;;5071806;28;20438;-67
2023/10/31 05:20:31;;;;;;;;;;;;;;;;;;5072264;28;19959;-67
2023/10/31 05:22:57;;;;;;;;;;;;;;;;;;5081177;28;19955;-68
2023/10/31 05:25:23;;;;;;;;;;;;;;;;;;5078448;28;20383;-67
2023/10/31 05:27:49;;;;;;;;;;;;;;;;;;5073493;28;19916;-67
2023/10/31 05:30:15;;;;;;;;;;;;;;;;;;5073796;28;20010;-69
2023/10/31 05:32:41;;;;;;;;;;;;;;;;;;5082375;28;20011;-68
2023/10/31 05:35:07;;;;;;;;;;;;;;;;;;5073953;28;19943;-67
2023/10/31 05:37:33;;;;;;;;;;;;;;;;;;5075952;28;19938;-68
2023/10/31 05:40:00;;;;;;;;;;;;;;;;;;5073774;28;19912;-69
2023/10/31 05:42:27;;;;;;;;;;;;;;;;;;5075063;28;19919;-67
2023/10/31 05:44:53;;;;;;;;;;;;;;;;;;5076834;28;19912;-67
2023/10/31 05:47:19;;;;;;;;;;;;;;;;;;5073478;28;19952;-69
2023/10/31 05:49:45;;;;;;;;;;;;;;;;;;5076289;28;19958;-67
2023/10/31 05:52:11;;;;;;;;;;;;;;;;;;5072095;28;19948;-67
2023/10/31 05:54:37;;;;;;;;;;;;;;;;;;5078921;28;20021;-67
2023/10/31 05:57:02;;;;;;;;;;;;;;;;;;5073432;28;19923;-69
2023/10/31 05:59:28;;;;;;;;;;;;;;;;;;5076881;28;19956;-66
2023/10/31 06:01:54;;;;;;;;;;;;;;;;;;5075465;28;19947;-68
2023/10/31 06:04:20;;;;;;;;;;;;;;;;;;5078734;28;19974;-69
2023/10/31 06:06:46;;;;;;;;;;;;;;;;;;5074676;28;20054;-69
2023/10/31 06:09:14;;;;;;;;;;;;;;;;;;5072070;28;19958;-68
2023/10/31 06:11:39;;;;;;;;;;;;;;;;;;5073136;28;19951;-66
2023/10/31 06:14:05;;;;;;;;;;;;;;;;;;5070290;28;19954;-67
2023/10/31 06:16:31;;;;;;;;;;;;;;;;;;5070844;28;19917;-68
2023/10/31 06:18:57;;;;;;;;;;;;;;;;;;5071929;28;20296;-67
2023/10/31 06:21:24;;;;;;;;;;;;;;;;;;5068219;28;19969;-68
2023/10/31 06:23:50;;;;;;;;;;;;;;;;;;5076998;28;20003;-68
2023/10/31 06:26:16;;;;;;;;;;;;;;;;;;5071418;28;19924;-68
2023/10/31 06:28:42;;;;;;;;;;;;;;;;;;5080870;28;19948;-68
2023/10/31 06:31:08;;;;;;;;;;;;;;;;;;5072248;28;19960;-68
2023/10/31 06:33:34;;;;;;;;;;;;;;;;;;5074031;28;20404;-68
2023/10/31 06:36:00;;;;;;;;;;;;;;;;;;5072160;28;20022;-68
2023/10/31 06:38:25;;;;;;;;;;;;;;;;;;5070173;28;19916;-68
2023/10/31 06:40:52;;;;;;;;;;;;;;;;;;5068461;28;19923;-68
2023/10/31 06:43:18;;;;;;;;;;;;;;;;;;5066128;28;19955;-68
2023/10/31 06:45:44;;;;;;;;;;;;;;;;;;5070163;28;19952;-68
2023/10/31 06:48:10;;;;;;;;;;;;;;;;;;5070359;28;20375;-68
2023/10/31 06:50:36;;;;;;;;;;;;;;;;;;5074958;28;20011;-67
2023/10/31 06:53:02;;;;;;;;;;;;;;;;;;5067923;28;20448;-69
2023/10/31 06:55:28;;;;;;;;;;;;;;;;;;5074708;28;19918;-67
2023/10/31 06:57:54;;;;;;;;;;;;;;;;;;5073405;28;20346;-68
2023/10/31 07:00:20;;;;;;;;;;;;;;;;;;5072514;28;19923;-68
2023/10/31 07:02:47;;;;;;;;;;;;;;;;;;5078265;28;19912;-68
2023/10/31 07:05:13;;;;;;;;;;;;;;;;;;5073513;28;19913;-68
2023/10/31 07:07:39;;;;;;;;;;;;;;;;;;5079863;28;19922;-66
2023/10/31 07:10:05;;;;;;;;;;;;;;;;;;5077111;28;19943;-68
2023/10/31 07:12:31;;;;;;;;;;;;;;;;;;5071892;28;20412;-69
2023/10/31 07:15:00;;;;;;;;;;;;;;;;;;5070904;28;19947;-67
2023/10/31 07:17:26;;;;;;;;;;;;;;;;;;5079583;28;20010;-69
2023/10/31 07:19:52;;;;;;;;;;;;;;;;;;5071085;28;20003;-68
2023/10/31 07:22:18;;;;;;;;;;;;;;;;;;5066909;28;19944;-66
2023/10/31 07:24:44;;;;;;;;;;;;;;;;;;5066560;28;19920;-67
2023/10/31 07:27:10;;;;;;;;;;;;;;;;;;5073498;28;20382;-68
2023/10/31 07:29:36;;;;;;;;;;;;;;;;;;5076656;28;19934;-68
2023/10/31 07:32:02;;;;;;;;;;;;;;;;;;5065247;28;20400;-68
2023/10/31 07:34:28;;;;;;;;;;;;;;;;;;5074490;28;19912;-68
2023/10/31 07:36:54;;;;;;;;;;;;;;;;;;5072335;28;19944;-68
2023/10/31 07:39:20;;;;;;;;;;;;;;;;;;5070711;28;19926;-67
2023/10/31 07:41:45;;;;;;;;;;;;;;;;;;5071861;28;19955;-68
2023/10/31 07:44:12;;;;;;;;;;;;;;;;;;5078699;28;20382;-68
2023/10/31 07:46:37;;;;;;;;;;;;;;;;;;5074751;28;19951;-68
2023/10/31 07:49:03;;;;;;;;;;;;;;;;;;5071646;28;19970;-68
2023/10/31 07:51:29;;;;;;;;;;;;;;;;;;5075838;28;20363;-68
2023/10/31 07:53:57;;;;;;;;;;;;;;;;;;5069368;28;19992;-68
2023/10/31 07:56:25;;;;;;;;;;;;;;;;;;5059339;28;19916;-68
2023/10/31 07:58:51;;;;;;;;;;;;;;;;;;5067678;28;20017;-68
2023/10/31 08:01:17;;;;;;;;;;;;;;;;;;5069128;28;20273;-68
2023/10/31 08:03:43;;;;;;;;;;;;;;;;;;5075377;28;19924;-68
2023/10/31 08:06:08;;;;;;;;;;;;;;;;;;5072055;28;19996;-69
2023/10/31 08:08:34;;;;;;;;;;;;;;;;;;5072318;28;20364;-68
2023/10/31 08:11:00;;;;;;;;;;;;;;;;;;5068273;28;19916;-69
2023/10/31 08:13:26;;;;;;;;;;;;;;;;;;5068992;28;20360;-68
2023/10/31 08:15:52;;;;;;;;;;;;;;;;;;5065312;28;19920;-68
2023/10/31 08:18:18;;;;;;;;;;;;;;;;;;5064986;28;20000;-68
2023/10/31 08:20:46;;;;;;;;;;;;;;;;;;5072977;28;20458;-69
2023/10/31 08:23:12;;;;;;;;;;;;;;;;;;5071360;28;19923;-62
2023/10/31 08:25:37;;;;;;;;;;;;;;;;;;5081128;28;20372;-63
2023/10/31 08:28:03;;;;;;;;;;;;;;;;;;5071685;28;19922;-62
2023/10/31 08:30:30;;;;;;;;;;;;;;;;;;5069860;28;19912;-62
2023/10/31 08:32:56;;;;;;;;;;;;;;;;;;5059094;28;20015;-63
2023/10/31 08:35:22;;;;;;;;;;;;;;;;;;5066613;28;20058;-62
2023/10/31 08:37:48;;;;;;;;;;;;;;;;;;5070330;28;20386;-60
2023/10/31 08:40:13;;;;;;;;;;;;;;;;;;5073883;28;19913;-62
2023/10/31 08:42:39;;;;;;;;;;;;;;;;;;5074968;28;20340;-62
2023/10/31 08:45:05;;;;;;;;;;;;;;;;;;5068061;28;20031;-63
2023/10/31 08:47:31;;;;;;;;;;;;;;;;;;5062752;28;20012;-62
2023/10/31 08:49:57;;;;;;;;;;;;;;;;;;5080987;28;19919;-62
2023/10/31 08:52:23;;;;;;;;;;;;;;;;;;5075991;28;20027;-62
2023/10/31 08:54:49;;;;;;;;;;;;;;;;;;5072612;28;20402;-62
2023/10/31 08:57:15;;;;;;;;;;;;;;;;;;5075872;28;20333;-61
2023/10/31 08:59:41;;;;;;;;;;;;;;;;;;5072432;28;19919;-62
2023/10/31 09:02:07;;;;;;;;;;;;;;;;;;5078118;28;19928;-63
2023/10/31 09:04:33;;;;;;;;;;;;;;;;;;5075152;28;19952;-62
2023/10/31 09:06:59;;;;;;;;;;;;;;;;;;5070224;28;20281;-62
2023/10/31 09:09:24;;;;;;;;;;;;;;;;;;5075727;28;20352;-62
2023/10/31 09:11:50;;;;;;;;;;;;;;;;;;5068592;28;19963;-62
2023/10/31 09:14:16;;;;;;;;;;;;;;;;;;5069538;28;20003;-63
2023/10/31 09:16:42;;;;;;;;;;;;;;;;;;5069609;28;20334;-62
2023/10/31 09:19:08;;;;;;;;;;;;;;;;;;5071269;28;19912;-63
2023/10/31 09:21:34;;;;;;;;;;;;;;;;;;5054093;28;19970;-62
2023/10/31 09:24:00;;;;;;;;;;;;;;;;;;5068632;28;19959;-63
2023/10/31 09:26:26;;;;;;;;;;;;;;;;;;5074234;28;19952;-62
2023/10/31 09:28:52;;;;;;;;;;;;;;;;;;5068960;28;20374;-62
2023/10/31 09:31:18;;;;;;;;;;;;;;;;;;5070677;28;19913;-63
2023/10/31 09:33:44;;;;;;;;;;;;;;;;;;5069508;28;19964;-67
2023/10/31 09:36:10;;;;;;;;;;;;;;;;;;5074638;28;20022;-67
2023/10/31 09:38:35;;;;;;;;;;;;;;;;;;5076186;28;21302;-67
2023/10/31 09:41:01;;;;;;;;;;;;;;;;;;5069310;28;19913;-67
2023/10/31 09:43:27;;;;;;;;;;;;;;;;;;5073286;28;20010;-67
2023/10/31 09:45:53;;;;;;;;;;;;;;;;;;5070105;28;20355;-67
2023/10/31 09:48:19;;;;;;;;;;;;;;;;;;5070933;28;19916;-67
2023/10/31 09:50:45;;;;;;;;;;;;;;;;;;5070155;28;20011;-67
2023/10/31 09:53:11;;;;;;;;;;;;;;;;;;5073277;28;20317;-67
2023/10/31 09:55:37;;;;;;;;;;;;;;;;;;5078612;28;19927;-68
2023/10/31 09:58:03;;;;;;;;;;;;;;;;;;5056965;28;19948;-66
2023/10/31 10:00:28;;;;;;;;;;;;;;;;;;5079712;28;19923;-67
2023/10/31 10:02:54;;;;;;;;;;;;;;;;;;5079377;28;19919;-67
2023/10/31 10:05:20;;;;;;;;;;;;;;;;;;5072178;28;20360;-67
2023/10/31 10:07:46;;;;;;;;;;;;;;;;;;5069834;28;19955;-67
2023/10/31 10:10:12;;;;;;;;;;;;;;;;;;5073628;28;20253;-66
2023/10/31 10:12:38;;;;;;;;;;;;;;;;;;5078930;28;20007;-67
2023/10/31 10:15:04;;;;;;;;;;;;;;;;;;5075244;28;19920;-67
2023/10/31 10:17:30;;;;;;;;;;;;;;;;;;5074211;28;20002;-67
2023/10/31 10:19:56;;;;;;;;;;;;;;;;;;5075104;28;20402;-67
2023/10/31 10:22:22;;;;;;;;;;;;;;;;;;5072567;28;19921;-67
2023/10/31 10:24:48;;;;;;;;;;;;;;;;;;5075242;28;19924;-66
2023/10/31 10:27:14;;;;;;;;;;;;;;;;;;5081377;28;20092;-67
2023/10/31 10:29:41;;;;;;;;;;;;;;;;;;5072047;28;20080;-67
2023/10/31 10:32:08;;;;;;;;;;;;;;;;;;5075320;28;19919;-67
2023/10/31 10:34:35;;;;;;;;;;;;;;;;;;5072003;28;19974;-67
2023/10/31 10:37:01;;;;;;;;;;;;;;;;;;5068729;28;19916;-67
2023/10/31 10:39:27;;;;;;;;;;;;;;;;;;5071291;28;20489;-67
2023/10/31 10:41:55;;;;;;;;;;;;;;;;;;5076636;28;19926;-68
2023/10/31 10:44:21;;;;;;;;;;;;;;;;;;5069962;28;19940;-68
2023/10/31 10:46:47;;;;;;;;;;;;;;;;;;5073369;28;20028;-67
2023/10/31 10:49:13;;;;;;;;;;;;;;;;;;5072994;28;20351;-66
2023/10/31 10:51:39;;;;;;;;;;;;;;;;;;5078169;28;20003;-67
2023/10/31 10:54:04;;;;;;;;;;;;;;;;;;5074815;28;19917;-67
2023/10/31 10:56:30;;;;;;;;;;;;;;;;;;5069139;28;20353;-67
2023/10/31 10:58:57;;;;;;;;;;;;;;;;;;5069250;28;19995;-67
2023/10/31 11:01:22;;;;;;;;;;;;;;;;;;5080755;28;19912;-66
2023/10/31 11:03:48;;;;;;;;;;;;;;;;;;5074098;28;19956;-67
2023/10/31 11:06:14;;;;;;;;;;;;;;;;;;5074289;28;19946;-66
2023/10/31 11:08:40;;;;;;;;;;;;;;;;;;5075867;28;20003;-67
2023/10/31 11:11:06;;;;;;;;;;;;;;;;;;5065998;28;19919;-67
2023/10/31 11:13:32;;;;;;;;;;;;;;;;;;5070660;28;19952;-67
2023/10/31 11:15:58;;;;;;;;;;;;;;;;;;5070803;28;19951;-66
2023/10/31 11:18:24;;;;;;;;;;;;;;;;;;5071916;28;20474;-67
2023/10/31 11:20:50;;;;;;;;;;;;;;;;;;5066147;28;19947;-67
2023/10/31 11:23:16;;;;;;;;;;;;;;;;;;5074423;28;19912;-67
2023/10/31 11:25:43;;;;;;;;;;;;;;;;;;5076834;28;19927;-67
2023/10/31 11:28:09;;;;;;;;;;;;;;;;;;5073031;28;19928;-67
2023/10/31 11:30:35;;;;;;;;;;;;;;;;;;5071746;28;20324;-67
2023/10/31 11:33:01;;;;;;;;;;;;;;;;;;5073290;28;19947;-68
2023/10/31 11:35:27;;;;;;;;;;;;;;;;;;5078335;28;19999;-66
2023/10/31 11:37:53;;;;;;;;;;;;;;;;;;5068206;28;19986;-67
2023/10/31 11:40:18;;;;;;;;;;;;;;;;;;5075685;28;20445;-68
2023/10/31 11:42:44;;;;;;;;;;;;;;;;;;5071974;28;19920;-67
2023/10/31 11:45:10;;;;;;;;;;;;;;;;;;5065975;28;19962;-67
2023/10/31 11:47:36;;;;;;;;;;;;;;;;;;5063488;28;19924;-67
2023/10/31 11:50:02;;;;;;;;;;;;;;;;;;5066691;28;19912;-68
2023/10/31 11:52:28;;;;;;;;;;;;;;;;;;5065653;28;20003;-64
2023/10/31 11:54:54;;;;;;;;;;;;;;;;;;5078635;28;19912;-62
2023/10/31 11:57:20;;;;;;;;;;;;;;;;;;5076177;28;20033;-63
2023/10/31 11:59:46;;;;;;;;;;;;;;;;;;5073512;28;19913;-62
2023/10/31 12:02:11;;;;;;;;;;;;;;;;;;5070346;28;20013;-63
2023/10/31 12:04:37;;;;;;;;;;;;;;;;;;5073455;28;19934;-63
2023/10/31 12:07:03;;;;;;;;;;;;;;;;;;5078419;28;19923;-62
2023/10/31 12:09:29;;;;;;;;;;;;;;;;;;5077593;28;19958;-63
2023/10/31 12:11:55;;;;;;;;;;;;;;;;;;5070651;28;20368;-62
2023/10/31 12:14:21;;;;;;;;;;;;;;;;;;5073630;28;19958;-63
2023/10/31 12:16:47;;;;;;;;;;;;;;;;;;5073454;28;20007;-63
2023/10/31 12:19:13;;;;;;;;;;;;;;;;;;5076832;28;20249;-66
2023/10/31 12:21:39;;;;;;;;;;;;;;;;;;5065726;28;19919;-62
2023/10/31 12:24:05;;;;;;;;;;;;;;;;;;5077238;28;19913;-63
2023/10/31 12:26:31;;;;;;;;;;;;;;;;;;5077884;28;19952;-63
2023/10/31 12:28:57;;;;;;;;;;;;;;;;;;5082599;28;19916;-63
2023/10/31 12:31:23;;;;;;;;;;;;;;;;;;5078784;28;19986;-63
2023/10/31 12:33:51;;;;;;;;;;;;;;;;;;5076496;28;20298;-63
2023/10/31 12:36:17;;;;;;;;;;;;;;;;;;5080631;28;19931;-62
2023/10/31 12:38:43;;;;;;;;;;;;;;;;;;5074846;28;19944;-63
2023/10/31 12:41:09;;;;;;;;;;;;;;;;;;5066402;28;20370;-62
2023/10/31 12:43:35;;;;;;;;;;;;;;;;;;5075293;28;19965;-63
2023/10/31 12:46:01;;;;;;;;;;;;;;;;;;5074184;28;19927;-64
2023/10/31 12:48:27;;;;;;;;;;;;;;;;;;5074029;28;20007;-63
2023/10/31 12:50:52;;;;;;;;;;;;;;;;;;5071712;28;20265;-63
2023/10/31 12:53:19;;;;;;;;;;;;;;;;;;5073876;28;19913;-63
2023/10/31 12:55:45;;;;;;;;;;;;;;;;;;5072662;28;19930;-63
2023/10/31 12:58:14;;;;;;;;;;;;;;;;;;5070866;28;20042;-63
2023/10/31 13:00:42;;;;;;;;;;;;;;;;;;5073574;28;19923;-64
2023/10/31 13:03:11;;;;;;;;;;;;;;;;;;5074168;28;20280;-64
2023/10/31 13:05:40;;;;;;;;;;;;;;;;;;5069746;28;19913;-64
2023/10/31 13:08:06;;;;;;;;;;;;;;;;;;5073702;28;19916;-64
2023/10/31 13:10:32;;;;;;;;;;;;;;;;;;5068212;28;19935;-65
2023/10/31 13:12:58;;;;;;;;;;;;;;;;;;5055346;28;19912;-64
2023/10/31 13:15:24;;;;;;;;;;;;;;;;;;5068165;28;20288;-64
2023/10/31 13:17:50;;;;;;;;;;;;;;;;;;5073597;28;19948;-64
2023/10/31 13:20:16;;;;;;;;;;;;;;;;;;5073168;28;20287;-64
2023/10/31 13:22:42;;;;;;;;;;;;;;;;;;5066042;28;19939;-64
2023/10/31 13:25:10;;;;;;;;;;;;;;;;;;5074086;28;19971;-64
2023/10/31 13:27:36;;;;;;;;;;;;;;;;;;5068831;28;19925;-64
2023/10/31 13:30:02;;;;;;;;;;;;;;;;;;5072545;28;19962;-65
2023/10/31 13:32:28;;;;;;;;;;;;;;;;;;5073486;28;19923;-64
2023/10/31 13:34:53;;;;;;;;;;;;;;;;;;5069721;28;20381;-64
2023/10/31 13:37:20;;;;;;;;;;;;;;;;;;5072240;28;19958;-63
2023/10/31 13:39:46;;;;;;;;;;;;;;;;;;5072742;28;19912;-64
2023/10/31 13:42:12;;;;;;;;;;;;;;;;;;5073390;28;20034;-64
2023/10/31 13:44:38;;;;;;;;;;;;;;;;;;5076557;28;19913;-64
2023/10/31 13:47:04;;;;;;;;;;;;;;;;;;5077237;28;19912;-64
2023/10/31 13:49:30;;;;;;;;;;;;;;;;;;5080174;28;19959;-64
2023/10/31 13:51:55;;;;;;;;;;;;;;;;;;5073923;28;20320;-63
2023/10/31 13:54:21;;;;;;;;;;;;;;;;;;5074907;28;19916;-64
2023/10/31 13:56:47;;;;;;;;;;;;;;;;;;5079192;28;19916;-64
2023/10/31 13:59:14;;;;;;;;;;;;;;;;;;5068609;28;19970;-64
2023/10/31 14:01:40;;;;;;;;;;;;;;;;;;5081667;28;20009;-63
2023/10/31 14:04:06;;;;;;;;;;;;;;;;;;5073317;28;19958;-63
2023/10/31 14:06:32;;;;;;;;;;;;;;;;;;5074234;28;19990;-65
2023/10/31 14:08:58;;;;;;;;;;;;;;;;;;5081531;28;19937;-63
2023/10/31 14:11:24;;;;;;;;;;;;;;;;;;5071234;28;19913;-63
2023/10/31 14:13:52;;;;;;;;;;;;;;;;;;5076967;28;20407;-66
2023/10/31 14:16:18;;;;;;;;;;;;;;;;;;5065451;28;19948;-69
2023/10/31 14:18:45;;;;;;;;;;;;;;;;;;5067931;28;20333;-66
2023/10/31 14:21:11;;;;;;;;;;;;;;;;;;5077849;28;20382;-69
2023/10/31 14:23:37;;;;;;;;;;;;;;;;;;5078361;28;19912;-69
2023/10/31 14:26:04;;;;;;;;;;;;;;;;;;5072669;28;19963;-69
2023/10/31 14:28:30;;;;;;;;;;;;;;;;;;5067853;28;20019;-69
2023/10/31 14:30:57;;;;;;;;;;;;;;;;;;5077394;28;19999;-68
2023/10/31 14:33:22;;;;;;;;;;;;;;;;;;5072396;28;20010;-67
2023/10/31 14:35:48;;;;;;;;;;;;;;;;;;5073543;28;20016;-69
2023/10/31 14:38:14;;;;;;;;;;;;;;;;;;5077850;28;19919;-69
2023/10/31 14:40:40;;;;;;;;;;;;;;;;;;5073330;28;19920;-69
2023/10/31 14:43:06;;;;;;;;;;;;;;;;;;5073554;28;19935;-66
2023/10/31 14:45:32;;;;;;;;;;;;;;;;;;5072524;28;19916;-69
2023/10/31 14:47:58;;;;;;;;;;;;;;;;;;5067102;28;19920;-69
2023/10/31 14:50:24;;;;;;;;;;;;;;;;;;5074926;28;20350;-69
2023/10/31 14:52:50;;;;;;;;;;;;;;;;;;5070584;28;20007;-69
2023/10/31 14:55:15;;;;;;;;;;;;;;;;;;5075692;28;19966;-69
2023/10/31 14:57:41;;;;;;;;;;;;;;;;;;5074593;28;19918;-70
2023/10/31 15:00:08;;;;;;;;;;;;;;;;;;5068673;28;20032;-68
2023/10/31 15:02:34;;;;;;;;;;;;;;;;;;5073636;28;19916;-68
2023/10/31 15:05:02;;;;;;;;;;;;;;;;;;5070677;28;19912;-69
2023/10/31 15:07:28;;;;;;;;;;;;;;;;;;5068624;28;19923;-69
2023/10/31 15:09:54;;;;;;;;;;;;;;;;;;5066676;28;20447;-69
2023/10/31 15:12:20;;;;;;;;;;;;;;;;;;5064680;28;19926;-69
2023/10/31 15:14:46;;;;;;;;;;;;;;;;;;5077474;28;20394;-69
2023/10/31 15:17:12;;;;;;;;;;;;;;;;;;5066093;28;19966;-69
2023/10/31 15:19:38;;;;;;;;;;;;;;;;;;5068299;28;19927;-69
2023/10/31 15:22:04;;;;;;;;;;;;;;;;;;5071625;28;20003;-68
2023/10/31 15:24:30;;;;;;;;;;;;;;;;;;5070062;28;20313;-69
2023/10/31 15:26:56;;;;;;;;;;;;;;;;;;5080271;28;20018;-69
2023/10/31 15:29:22;;;;;;;;;;;;;;;;;;5076774;28;20019;-69
2023/10/31 15:31:53;;;;;;;;;;;;;;;;;;5071607;28;20376;-69
2023/10/31 15:34:19;;;;;;;;;;;;;;;;;;5078211;28;19918;-69
2023/10/31 15:36:45;;;;;;;;;;;;;;;;;;5073390;28;19999;-69
2023/10/31 15:39:12;;;;;;;;;;;;;;;;;;5070063;28;19921;-68
2023/10/31 15:41:38;;;;;;;;;;;;;;;;;;5075450;28;19921;-69
2023/10/31 15:44:04;;;;;;;;;;;;;;;;;;5071312;28;19930;-67
2023/10/31 15:46:30;;;;;;;;;;;;;;;;;;5055185;28;19912;-68
2023/10/31 15:48:56;;;;;;;;;;;;;;;;;;5051771;28;20288;-68
2023/10/31 15:51:22;;;;;;;;;;;;;;;;;;5067728;28;19981;-68
2023/10/31 15:53:48;;;;;;;;;;;;;;;;;;5076807;28;19913;-67
2023/10/31 15:56:13;;;;;;;;;;;;;;;;;;5079393;28;20727;-67
2023/10/31 15:58:39;;;;;;;;;;;;;;;;;;5064834;28;19950;-66
2023/10/31 16:01:05;;;;;;;;;;;;;;;;;;5058537;28;19912;-67
2023/10/31 16:03:31;;;;;;;;;;;;;;;;;;5070699;28;20326;-69
2023/10/31 16:05:57;;;;;;;;;;;;;;;;;;5074736;28;19952;-67
2023/10/31 16:08:23;;;;;;;;;;;;;;;;;;5072662;28;19955;-67
2023/10/31 16:10:49;;;;;;;;;;;;;;;;;;5071032;28;19919;-67
2023/10/31 16:13:15;;;;;;;;;;;;;;;;;;5069379;28;19916;-67
2023/10/31 16:15:41;;;;;;;;;;;;;;;;;;5076272;28;20414;-67
2023/10/31 16:18:07;;;;;;;;;;;;;;;;;;5076964;28;19955;-66
2023/10/31 16:20:34;;;;;;;;;;;;;;;;;;5069116;28;19959;-67
2023/10/31 16:23:00;;;;;;;;;;;;;;;;;;5070589;28;19950;-68
2023/10/31 16:25:26;;;;;;;;;;;;;;;;;;5080915;28;19959;-67
2023/10/31 16:27:52;;;;;;;;;;;;;;;;;;5071393;28;19924;-68
2023/10/31 16:30:18;;;;;;;;;;;;;;;;;;5078164;28;19973;-67
2023/10/31 16:32:44;;;;;;;;;;;;;;;;;;5073801;28;20352;-61
2023/10/31 16:35:10;;;;;;;;;;;;;;;;;;5079542;28;19958;-61
2023/10/31 16:37:35;;;;;;;;;;;;;;;;;;5067003;28;19951;-62